»·PEaware :: N982TB KSNA-KHND

N982TB :: KSNA-KHND

FLIGHT INFORMATION

Flight Status: Arrived
Operator: Privately registered:
United States
More flights under this callsign
Pilot: Anonymous 15639 (15639)
Aircraft: SOCATA TBM-900
(TBM9)
More flights by this aircraft type
Origin: KSNA John Wayne-Orange Co
United States
Destination: KHND Henderson
United States
More flights between these airports :: More routes between these airports
Route: +MUSEL8 DAG V587 BLD
File this flight plan on PilotEdge
Remarks:
Altitude:
(Current/Filed)
27,000ft
Speed:
(Current/Filed)
322kts
Departed: 02-Dec-19 08:39 AM
Arrived: 02-Dec-19 09:25 AM
Distance/Time
Traveled:
193nm/0:46
Distance/Time
To Go:
Arrived

Flight Plot

Page will automatically refresh every two minutes.

Flight plan parsing failed; only flown route is shown


Map Options




Map Legend


Flown Route
Filed Route
Departure Airport
Arrival Airport
Navaid (VOR, NDB)
Fix

Horizontal Profiles

Position Reports

Time Latitude Longitude Heading Altitude Ground
Speed
02-Dec-19 08:26 33.676916 -117.872079 119 59ft 0kts
02-Dec-19 08:27 33.676916 -117.872079 119 59ft 0kts
02-Dec-19 08:28 33.676916 -117.872079 119 59ft 0kts
02-Dec-19 08:29 33.676916 -117.872079 119 59ft 0kts
02-Dec-19 08:30 33.676916 -117.872079 119 59ft 0kts
02-Dec-19 08:31 33.676916 -117.872079 119 59ft 0kts
02-Dec-19 08:32 33.676916 -117.872079 119 59ft 0kts
02-Dec-19 08:33 33.676916 -117.872079 119 59ft 0kts
02-Dec-19 08:34 33.676916 -117.872079 119 59ft 0kts
02-Dec-19 08:35 33.676374 -117.870682 114 59ft 0kts
02-Dec-19 08:36 33.677695 -117.869027 28 59ft 15kts
02-Dec-19 08:37 33.681119 -117.867046 33 59ft 6kts
02-Dec-19 08:38 33.678315 -117.867179 208 59ft 76kts
02-Dec-19 08:39 33.651489 -117.884059 205 1850ft 118kts
02-Dec-19 08:40 33.615699 -117.891085 188 3775ft 143kts
02-Dec-19 08:41 33.579522 -117.914794 270 5024ft 190kts
02-Dec-19 08:42 33.592031 -117.979522 281 6009ft 210kts
02-Dec-19 08:43 33.625085 -118.026310 348 7562ft 205kts
02-Dec-19 08:44 33.679381 -118.036918 349 9727ft 188kts
02-Dec-19 08:45 33.729385 -118.045477 345 11924ft 183kts
02-Dec-19 08:46 33.780819 -118.053443 2 14021ft 196kts
02-Dec-19 08:47 33.827643 -118.014784 36 15860ft 211kts
02-Dec-19 08:48 33.875835 -117.971047 35 17645ft 222kts
02-Dec-19 08:49 33.926292 -117.925313 34 19375ft 234kts
02-Dec-19 08:50 33.979698 -117.876838 33 21208ft 244kts
02-Dec-19 08:51 34.035398 -117.826223 33 22722ft 266kts
02-Dec-19 08:52 34.096583 -117.762888 47 23232ft 321kts
02-Dec-19 08:53 34.159377 -117.678060 46 23237ft 348kts
02-Dec-19 08:54 34.224568 -117.590047 46 23259ft 354kts
02-Dec-19 08:55 34.288507 -117.503470 46 24378ft 325kts
02-Dec-19 08:56 34.346138 -117.425314 45 26277ft 306kts
02-Dec-19 08:57 34.403903 -117.346844 46 27297ft 335kts
02-Dec-19 08:58 34.469692 -117.257165 46 27274ft 370kts
02-Dec-19 08:59 34.539383 -117.161945 46 27264ft 380kts
02-Dec-19 09:00 34.609536 -117.065809 46 27273ft 381kts
02-Dec-19 09:01 34.679784 -116.969301 46 27291ft 382kts
02-Dec-19 09:02 34.750028 -116.872505 46 27312ft 382kts
02-Dec-19 09:03 34.820446 -116.775216 46 27301ft 383kts
02-Dec-19 09:04 34.890839 -116.677680 46 27244ft 385kts
02-Dec-19 09:05 34.962431 -116.576523 54 26297ft 399kts
02-Dec-19 09:06 35.015764 -116.458326 61 25333ft 397kts
02-Dec-19 09:07 35.068075 -116.340357 62 24289ft 385kts
02-Dec-19 09:08 35.117391 -116.228699 62 24273ft 366kts
02-Dec-19 09:09 35.165290 -116.119918 62 24277ft 360kts
02-Dec-19 09:10 35.213948 -116.009068 62 23362ft 376kts
02-Dec-19 09:11 35.263280 -115.896314 61 22356ft 374kts
02-Dec-19 09:12 35.312529 -115.784655 54 21014ft 373kts
02-Dec-19 09:13 35.382110 -115.691775 45 19284ft 367kts
02-Dec-19 09:15 35.450689 -115.600252 45 17595ft 362kts
02-Dec-19 09:16 35.518173 -115.509909 46 15906ft 353kts
02-Dec-19 09:17 35.583156 -115.422453 47 14216ft 341kts
02-Dec-19 09:18 35.645651 -115.338884 47 12526ft 326kts
02-Dec-19 09:19 35.704300 -115.261868 47 10794ft 293kts
02-Dec-19 09:20 35.778456 -115.249708 351 8917ft 280kts
02-Dec-19 09:21 35.839202 -115.205538 51 6876ft 263kts
02-Dec-19 09:22 35.884667 -115.145903 20 5107ft 216kts
02-Dec-19 09:23 35.931693 -115.136037 2 3369ft 128kts
02-Dec-19 09:24 35.959589 -115.135592 359 2556ft 95kts
02-Dec-19 09:25 35.974347 -115.135599 294 2449ft 5kts
02-Dec-19 09:26 35.974816 -115.138461 15 2449ft 6kts
02-Dec-19 09:27 35.975124 -115.138338 359 2449ft 0kts

Navigation Log

Ident Type
Flight plan parsing failed, navigation log unavailable